SIA325 EDDF-WSSS
Flight info
| Callsign | SIA325 |
|---|---|
| Flight time | N/A |
| Altitude | 31000 |
| Route | SULUS6F SULUS Z650 VEMUT/N0489F330 DCT NELPA DCT PEPIK DCT AMRAX DCT NARKA DCT RULES/N0487F350 DCT ELROM DCT MOBRA DCT DENAK DCT DINRO DCT UDROS DCT ABSAX DCT REBLO P130 MAMED/N0492F370 B449 RANAH L750 ZB G202 RK P628 IBANI L510 GURVI T1 BBS L759 LAMBU/N0493F390 L759 PUT B579 VPL Y503 RINBA Y507 MAKNA Y511 TOPOR A464 ARAMA LELIB3B |
| Aircraft | A388/J-SADE2E3FGHIJ3J4J5M1RWXY/LB1D1 |
Departure
| Time | 2026-05-07 05:14 |
|---|---|
| Airport | Frankfurt Main Airport (EDDF) |
Arrival
| Time | N/A |
|---|---|
| Airport | Singapore Changi Airport (WSSS) |
| Time | Latitude | Longitude | Altitude | Speed | Heading |
|---|---|---|---|---|---|
| 2026-05-07 04:32 | 50.04763 | 8.57754 | 367 ft | 0 kts | 270° |
| 2026-05-07 04:57 | 50.04763 | 8.57768 | 368 ft | 4 kts | 269° |
| 2026-05-07 04:57 | 50.04764 | 8.57809 | 366 ft | 4 kts | 265° |
| 2026-05-07 04:57 | 50.04766 | 8.57851 | 366 ft | 4 kts | 262° |
| 2026-05-07 04:57 | 50.04771 | 8.57892 | 366 ft | 4 kts | 258° |
| 2026-05-07 04:58 | 50.04777 | 8.57933 | 366 ft | 4 kts | 255° |
| 2026-05-07 04:58 | 50.04784 | 8.57973 | 365 ft | 4 kts | 252° |
| 2026-05-07 04:58 | 50.04793 | 8.58013 | 369 ft | 4 kts | 250° |
| 2026-05-07 04:58 | 50.04802 | 8.58052 | 368 ft | 4 kts | 249° |
| 2026-05-07 04:59 | 50.04806 | 8.58065 | 366 ft | 0 kts | 250° |
| 2026-05-07 05:02 | 50.04800 | 8.58040 | 368 ft | 5 kts | 250° |
| 2026-05-07 05:02 | 50.04782 | 8.57989 | 367 ft | 6 kts | 221° |
| 2026-05-07 05:02 | 50.04742 | 8.57937 | 371 ft | 9 kts | 221° |
| 2026-05-07 05:02 | 50.04700 | 8.57869 | 369 ft | 9 kts | 241° |
| 2026-05-07 05:03 | 50.04678 | 8.57778 | 366 ft | 9 kts | 251° |
| 2026-05-07 05:03 | 50.04655 | 8.57677 | 369 ft | 11 kts | 250° |
| 2026-05-07 05:03 | 50.04626 | 8.57553 | 368 ft | 13 kts | 250° |
| 2026-05-07 05:03 | 50.04592 | 8.57410 | 366 ft | 15 kts | 250° |
| 2026-05-07 05:04 | 50.04554 | 8.57254 | 370 ft | 15 kts | 249° |
| 2026-05-07 05:04 | 50.04519 | 8.57106 | 366 ft | 14 kts | 249° |
| 2026-05-07 05:04 | 50.04485 | 8.56966 | 365 ft | 13 kts | 249° |
| 2026-05-07 05:04 | 50.04456 | 8.56845 | 369 ft | 12 kts | 249° |
| 2026-05-07 05:05 | 50.04423 | 8.56708 | 366 ft | 15 kts | 250° |
| 2026-05-07 05:05 | 50.04386 | 8.56552 | 369 ft | 16 kts | 250° |
| 2026-05-07 05:05 | 50.04347 | 8.56384 | 365 ft | 17 kts | 250° |
| 2026-05-07 05:05 | 50.04306 | 8.56216 | 368 ft | 16 kts | 249° |
| 2026-05-07 05:06 | 50.04267 | 8.56054 | 366 ft | 16 kts | 249° |
| 2026-05-07 05:06 | 50.04229 | 8.55896 | 360 ft | 16 kts | 249° |
| 2026-05-07 05:06 | 50.04191 | 8.55738 | 366 ft | 15 kts | 249° |
| 2026-05-07 05:06 | 50.04154 | 8.55585 | 364 ft | 15 kts | 250° |
| 2026-05-07 05:07 | 50.04119 | 8.55437 | 363 ft | 14 kts | 250° |
| 2026-05-07 05:07 | 50.04086 | 8.55299 | 365 ft | 13 kts | 250° |
| 2026-05-07 05:07 | 50.04055 | 8.55168 | 362 ft | 13 kts | 250° |
| 2026-05-07 05:07 | 50.04022 | 8.55031 | 367 ft | 13 kts | 250° |
| 2026-05-07 05:08 | 50.03990 | 8.54895 | 360 ft | 14 kts | 249° |
| 2026-05-07 05:08 | 50.03955 | 8.54750 | 360 ft | 15 kts | 249° |
| 2026-05-07 05:08 | 50.03920 | 8.54604 | 359 ft | 15 kts | 249° |
| 2026-05-07 05:08 | 50.03886 | 8.54465 | 358 ft | 11 kts | 249° |
| 2026-05-07 05:09 | 50.03854 | 8.54356 | 358 ft | 11 kts | 235° |
| 2026-05-07 05:09 | 50.03808 | 8.54254 | 354 ft | 12 kts | 242° |
| 2026-05-07 05:09 | 50.03779 | 8.54134 | 356 ft | 12 kts | 250° |
| 2026-05-07 05:09 | 50.03749 | 8.54006 | 357 ft | 13 kts | 249° |
| 2026-05-07 05:10 | 50.03714 | 8.53863 | 355 ft | 15 kts | 249° |
| 2026-05-07 05:10 | 50.03676 | 8.53705 | 356 ft | 16 kts | 249° |
| 2026-05-07 05:10 | 50.03638 | 8.53549 | 351 ft | 15 kts | 248° |
| 2026-05-07 05:10 | 50.03599 | 8.53396 | 352 ft | 15 kts | 249° |
| 2026-05-07 05:11 | 50.03563 | 8.53244 | 351 ft | 15 kts | 250° |
| 2026-05-07 05:11 | 50.03527 | 8.53094 | 351 ft | 15 kts | 250° |
| 2026-05-07 05:11 | 50.03491 | 8.52947 | 351 ft | 14 kts | 248° |
| 2026-05-07 05:11 | 50.03453 | 8.52803 | 346 ft | 14 kts | 248° |
| 2026-05-07 05:12 | 50.03423 | 8.52688 | 335 ft | 8 kts | 248° |
| 2026-05-07 05:12 | 50.03403 | 8.52616 | 336 ft | 4 kts | 237° |
| 2026-05-07 05:12 | 50.03383 | 8.52598 | 337 ft | 5 kts | 191° |
| 2026-05-07 05:12 | 50.03333 | 8.52593 | 338 ft | 9 kts | 179° |
| 2026-05-07 05:13 | 50.03132 | 8.52595 | 339 ft | 63 kts | 180° |
| 2026-05-07 05:13 | 50.02450 | 8.52602 | 340 ft | 129 kts | 179° |
| 2026-05-07 05:13 | 50.01391 | 8.52612 | 339 ft | 172 kts | 179° |
| 2026-05-07 05:13 | 50.00158 | 8.52641 | 685 ft | 176 kts | 181° |
| 2026-05-07 05:14 | 49.98936 | 8.52670 | 1204 ft | 178 kts | 182° |
| 2026-05-07 05:14 | 49.97682 | 8.52676 | 1664 ft | 184 kts | 181° |
| 2026-05-07 05:14 | 49.96444 | 8.53290 | 2017 ft | 194 kts | 142° |
| 2026-05-07 05:14 | 49.95613 | 8.54992 | 2199 ft | 206 kts | 113° |
| 2026-05-07 05:15 | 49.94987 | 8.57080 | 2280 ft | 220 kts | 114° |
| 2026-05-07 05:15 | 49.94328 | 8.59280 | 2378 ft | 229 kts | 108° |
| 2026-05-07 05:15 | 49.94010 | 8.61758 | 2543 ft | 242 kts | 89° |
| 2026-05-07 05:15 | 49.93953 | 8.64436 | 2937 ft | 257 kts | 91° |
| 2026-05-07 05:16 | 49.93839 | 8.67271 | 3378 ft | 266 kts | 95° |
| 2026-05-07 05:16 | 49.93219 | 8.70001 | 3891 ft | 275 kts | 124° |
| 2026-05-07 05:16 | 49.91857 | 8.72050 | 4644 ft | 274 kts | 144° |
| 2026-05-07 05:16 | 49.90813 | 8.73166 | 5086 ft | 276 kts | 147° |
| 2026-05-07 05:17 | 49.89219 | 8.74846 | 5776 ft | 278 kts | 140° |
| 2026-05-07 05:17 | 49.87897 | 8.77046 | 6431 ft | 281 kts | 124° |
| 2026-05-07 05:17 | 49.86910 | 8.79698 | 6970 ft | 287 kts | 118° |
| 2026-05-07 05:17 | 49.85941 | 8.82410 | 7560 ft | 291 kts | 118° |
| 2026-05-07 05:18 | 49.84939 | 8.85184 | 8159 ft | 295 kts | 119° |
| 2026-05-07 05:18 | 49.83599 | 8.88874 | 8967 ft | 299 kts | 119° |
| 2026-05-07 05:18 | 49.82905 | 8.90782 | 9370 ft | 302 kts | 119° |
| 2026-05-07 05:18 | 49.81870 | 8.93629 | 9969 ft | 306 kts | 118° |
| 2026-05-07 05:19 | 49.80810 | 8.96543 | 10277 ft | 319 kts | 118° |
| 2026-05-07 05:19 | 49.79707 | 8.99575 | 10442 ft | 335 kts | 118° |
| 2026-05-07 05:19 | 49.78539 | 9.02780 | 10612 ft | 350 kts | 119° |
| 2026-05-07 05:19 | 49.77329 | 9.06094 | 11057 ft | 355 kts | 119° |
| 2026-05-07 05:20 | 49.76245 | 9.09527 | 11584 ft | 356 kts | 110° |
| 2026-05-07 05:20 | 49.75534 | 9.13194 | 12155 ft | 357 kts | 102° |
| 2026-05-07 05:20 | 49.74967 | 9.16947 | 12667 ft | 360 kts | 102° |
| 2026-05-07 05:20 | 49.74373 | 9.20714 | 13242 ft | 361 kts | 103° |
| 2026-05-07 05:21 | 49.73761 | 9.24497 | 13754 ft | 364 kts | 103° |
| 2026-05-07 05:21 | 49.72514 | 9.32132 | 14719 ft | 368 kts | 103° |
| 2026-05-07 05:21 | 49.71886 | 9.35980 | 15179 ft | 370 kts | 103° |
| 2026-05-07 05:22 | 49.71254 | 9.39845 | 15674 ft | 372 kts | 103° |
| 2026-05-07 05:22 | 49.70619 | 9.43729 | 16147 ft | 374 kts | 103° |
| 2026-05-07 05:22 | 49.69978 | 9.47640 | 16576 ft | 376 kts | 103° |
| 2026-05-07 05:22 | 49.69333 | 9.51568 | 17009 ft | 379 kts | 104° |
| 2026-05-07 05:23 | 49.68682 | 9.55526 | 17454 ft | 381 kts | 104° |
| 2026-05-07 05:23 | 49.68027 | 9.59488 | 17932 ft | 383 kts | 104° |
| 2026-05-07 05:23 | 49.67410 | 9.63501 | 18281 ft | 386 kts | 98° |
| 2026-05-07 05:23 | 49.67268 | 9.67634 | 18704 ft | 385 kts | 86° |
| 2026-05-07 05:24 | 49.67667 | 9.71666 | 19102 ft | 386 kts | 74° |
| 2026-05-07 05:24 | 49.68402 | 9.75664 | 19415 ft | 389 kts | 73° |
| 2026-05-07 05:24 | 49.69129 | 9.79701 | 19832 ft | 389 kts | 74° |
| 2026-05-07 05:24 | 49.69841 | 9.83741 | 20196 ft | 391 kts | 74° |
| 2026-05-07 05:25 | 49.70555 | 9.87809 | 20564 ft | 393 kts | 74° |
| 2026-05-07 05:25 | 49.71330 | 9.91852 | 20933 ft | 393 kts | 69° |
| 2026-05-07 05:25 | 49.72440 | 9.95716 | 21291 ft | 394 kts | 60° |
| 2026-05-07 05:25 | 49.73882 | 9.99325 | 21639 ft | 396 kts | 53° |
| 2026-05-07 05:26 | 49.75515 | 10.02773 | 21993 ft | 397 kts | 53° |
| 2026-05-07 05:26 | 49.77133 | 10.06251 | 22286 ft | 401 kts | 54° |
| 2026-05-07 05:26 | 49.78736 | 10.09735 | 22591 ft | 403 kts | 54° |
| 2026-05-07 05:26 | 49.80363 | 10.13275 | 22971 ft | 404 kts | 54° |
| 2026-05-07 05:27 | 49.81999 | 10.16834 | 23323 ft | 406 kts | 54° |
| 2026-05-07 05:27 | 49.83642 | 10.20408 | 23636 ft | 408 kts | 54° |
| 2026-05-07 05:27 | 49.85290 | 10.23998 | 23917 ft | 410 kts | 54° |
| 2026-05-07 05:27 | 49.86948 | 10.27612 | 24204 ft | 411 kts | 54° |
| 2026-05-07 05:28 | 49.88609 | 10.31236 | 24465 ft | 413 kts | 54° |
| 2026-05-07 05:28 | 49.90278 | 10.34882 | 24768 ft | 415 kts | 54° |
| 2026-05-07 05:28 | 49.91947 | 10.38534 | 25054 ft | 417 kts | 54° |
| 2026-05-07 05:28 | 49.93630 | 10.42222 | 25335 ft | 419 kts | 54° |
| 2026-05-07 05:29 | 49.95317 | 10.45924 | 25649 ft | 421 kts | 54° |
| 2026-05-07 05:29 | 49.97015 | 10.49655 | 25892 ft | 425 kts | 54° |
| 2026-05-07 05:29 | 49.98721 | 10.53407 | 26227 ft | 426 kts | 55° |
| 2026-05-07 05:29 | 50.00448 | 10.57214 | 26296 ft | 435 kts | 56° |
| 2026-05-07 05:30 | 50.02195 | 10.61072 | 26603 ft | 437 kts | 56° |
| 2026-05-07 05:30 | 50.03947 | 10.64946 | 26945 ft | 439 kts | 57° |
| 2026-05-07 05:30 | 50.05409 | 10.69109 | 27267 ft | 439 kts | 70° |
| 2026-05-07 05:30 | 50.06211 | 10.73694 | 27604 ft | 439 kts | 84° |
| 2026-05-07 05:31 | 50.06314 | 10.78360 | 27929 ft | 438 kts | 97° |
| 2026-05-07 05:31 | 50.05722 | 10.83005 | 28266 ft | 437 kts | 109° |
| 2026-05-07 05:31 | 50.04718 | 10.87479 | 28610 ft | 439 kts | 112° |
| 2026-05-07 05:31 | 50.03651 | 10.91951 | 28949 ft | 441 kts | 111° |
| 2026-05-07 05:32 | 50.02610 | 10.96453 | 29296 ft | 444 kts | 111° |
| 2026-05-07 05:32 | 50.01598 | 11.01007 | 29621 ft | 446 kts | 110° |
| 2026-05-07 05:32 | 50.00610 | 11.05578 | 30078 ft | 446 kts | 110° |
| 2026-05-07 05:32 | 49.99627 | 11.10165 | 30340 ft | 449 kts | 111° |
| 2026-05-07 05:33 | 49.98638 | 11.14792 | 30616 ft | 452 kts | 111° |
| 2026-05-07 05:33 | 49.97645 | 11.19432 | 30895 ft | 454 kts | 111° |
| 2026-05-07 05:33 | 49.96642 | 11.24108 | 31186 ft | 457 kts | 111° |
| 2026-05-07 05:33 | 49.95645 | 11.28800 | 31462 ft | 459 kts | 111° |
| 2026-05-07 05:34 | 49.94645 | 11.33524 | 31747 ft | 461 kts | 111° |
| 2026-05-07 05:34 | 49.93652 | 11.38209 | 32016 ft | 464 kts | 111° |
| 2026-05-07 05:34 | 49.92643 | 11.42981 | 32266 ft | 467 kts | 110° |
| 2026-05-07 05:34 | 49.91731 | 11.47814 | 32605 ft | 468 kts | 110° |
| 2026-05-07 05:35 | 49.90861 | 11.52699 | 32845 ft | 472 kts | 110° |
| 2026-05-07 05:35 | 49.89986 | 11.57618 | 33101 ft | 474 kts | 110° |
| 2026-05-07 05:35 | 49.89093 | 11.62562 | 33379 ft | 476 kts | 111° |
| 2026-05-07 05:35 | 49.88229 | 11.67605 | 33612 ft | 482 kts | 107° |
| 2026-05-07 05:36 | 49.87697 | 11.72703 | 33873 ft | 488 kts | 102° |
| 2026-05-07 05:36 | 49.87257 | 11.77932 | 34090 ft | 490 kts | 103° |
| 2026-05-07 05:36 | 49.86799 | 11.83185 | 34281 ft | 493 kts | 103° |
| 2026-05-07 05:36 | 49.86332 | 11.88458 | 34530 ft | 494 kts | 103° |
| 2026-05-07 05:37 | 49.85859 | 11.93748 | 34831 ft | 495 kts | 103° |
| 2026-05-07 05:37 | 49.84896 | 12.04412 | 34895 ft | 499 kts | 103° |
| 2026-05-07 05:38 | 49.83935 | 12.15056 | 34882 ft | 499 kts | 103° |
| 2026-05-07 05:38 | 49.82961 | 12.25709 | 34879 ft | 499 kts | 103° |
| 2026-05-07 05:39 | 49.81981 | 12.36361 | 34888 ft | 502 kts | 103° |
| 2026-05-07 05:39 | 49.80853 | 12.46972 | 34892 ft | 496 kts | 109° |
| 2026-05-07 05:40 | 49.78883 | 12.57067 | 34889 ft | 492 kts | 113° |
| 2026-05-07 05:40 | 49.76854 | 12.67166 | 34885 ft | 491 kts | 113° |
| 2026-05-07 05:41 | 49.74821 | 12.77265 | 34864 ft | 491 kts | 113° |
| 2026-05-07 05:41 | 49.72775 | 12.87355 | 34868 ft | 492 kts | 113° |
| 2026-05-07 05:42 | 49.70712 | 12.97465 | 34889 ft | 494 kts | 113° |
| 2026-05-07 05:42 | 49.68650 | 13.07526 | 34897 ft | 495 kts | 113° |
| 2026-05-07 05:43 | 49.66559 | 13.17672 | 34920 ft | 496 kts | 113° |
| 2026-05-07 05:43 | 49.64458 | 13.27817 | 34924 ft | 496 kts | 114° |
| 2026-05-07 05:44 | 49.62349 | 13.37950 | 34925 ft | 496 kts | 114° |
| 2026-05-07 05:44 | 49.60229 | 13.48085 | 34923 ft | 496 kts | 114° |
| 2026-05-07 05:45 | 49.58304 | 13.57239 | 34907 ft | 496 kts | 114° |
| 2026-05-07 05:45 | 49.56170 | 13.67343 | 34896 ft | 496 kts | 114° |
| 2026-05-07 05:46 | 49.54028 | 13.77434 | 34900 ft | 496 kts | 114° |
| 2026-05-07 05:46 | 49.51886 | 13.87473 | 34902 ft | 497 kts | 114° |
| 2026-05-07 05:47 | 49.49722 | 13.97568 | 34907 ft | 497 kts | 114° |
| 2026-05-07 05:47 | 49.47548 | 14.07656 | 34893 ft | 497 kts | 115° |
| 2026-05-07 05:48 | 49.45365 | 14.17739 | 34903 ft | 497 kts | 115° |
| 2026-05-07 05:48 | 49.43169 | 14.27833 | 34910 ft | 498 kts | 115° |
| 2026-05-07 05:49 | 49.40975 | 14.37867 | 34916 ft | 498 kts | 115° |
| 2026-05-07 05:49 | 49.38760 | 14.47956 | 34898 ft | 499 kts | 115° |
| 2026-05-07 05:50 | 49.36531 | 14.58049 | 34906 ft | 499 kts | 115° |
| 2026-05-07 05:50 | 49.34292 | 14.68138 | 34911 ft | 500 kts | 115° |
| 2026-05-07 05:51 | 49.32043 | 14.78225 | 34922 ft | 500 kts | 115° |
| 2026-05-07 05:51 | 49.29787 | 14.88306 | 34911 ft | 500 kts | 116° |
| 2026-05-07 05:52 | 49.27524 | 14.98378 | 34914 ft | 500 kts | 116° |
| 2026-05-07 05:52 | 49.25260 | 15.08452 | 34922 ft | 500 kts | 116° |
| 2026-05-07 05:53 | 49.22994 | 15.18523 | 34930 ft | 501 kts | 116° |